Time;durP1;ratioP1;P1;durP2;ratioP2;P2;SDS_P1;SDS_P2;PMS_P1;PMS_P2;Temp;Humidity;BMP_temperature;BMP_pressure;BME280_temperature;BME280_humidity;BME280_pressure;Samples;Min_cycle;Max_cycle;Signal;HPM_P1;HPM_P2
2023/10/22 00:00:53;;;;;;;2.25;1.20;;;;;;;-145.87;100.00;54973.53;2090856;28;20048;-62
2023/10/22 00:01:55;;;;;;;2.85;1.60;;;;;;;-145.87;100.00;54973.53;2090900;28;20060;-62
2023/10/22 00:02:56;;;;;;;3.80;1.60;;;;;;;-145.87;100.00;54973.53;2090434;28;20052;-62
2023/10/22 00:03:57;;;;;;;5.88;1.70;;;;;;;-145.87;100.00;54973.53;2090623;28;20064;-62
2023/10/22 00:04:58;;;;;;;3.53;1.50;;;;;;;-145.87;100.00;54973.53;2090779;28;20048;-62
2023/10/22 00:05:59;;;;;;;4.50;1.60;;;;;;;-145.87;100.00;54973.53;2090694;28;20048;-62
2023/10/22 00:07:00;;;;;;;2.35;1.67;;;;;;;-145.87;100.00;54973.53;2090680;28;20052;-62
2023/10/22 00:08:01;;;;;;;2.47;1.67;;;;;;;-145.87;100.00;54973.53;2090741;28;20060;-62
2023/10/22 00:09:02;;;;;;;4.95;1.67;;;;;;;-145.87;100.00;54973.53;2090739;28;20048;-62
2023/10/22 00:10:04;;;;;;;3.78;1.65;;;;;;;-145.87;100.00;54973.53;2090668;28;20402;-62
2023/10/22 00:11:05;;;;;;;2.85;1.40;;;;;;;-145.87;100.00;54973.53;2090510;28;20040;-62
2023/10/22 00:12:06;;;;;;;2.05;1.50;;;;;;;-145.87;100.00;54973.53;2090685;28;20052;-62
2023/10/22 00:13:07;;;;;;;4.18;1.65;;;;;;;-145.87;100.00;54973.53;2090566;28;20056;-62
2023/10/22 00:14:08;;;;;;;2.53;1.42;;;;;;;-145.87;100.00;54973.53;2090488;28;20397;-62
2023/10/22 00:15:09;;;;;;;2.90;1.42;;;;;;;-145.87;100.00;54973.53;2090203;28;20060;-62
2023/10/22 00:16:11;;;;;;;2.75;1.52;;;;;;;-145.87;100.00;54973.53;2090697;28;20047;-62
2023/10/22 00:17:12;;;;;;;2.40;1.30;;;;;;;-145.87;100.00;54973.53;2091032;28;20052;-62
2023/10/22 00:18:22;;;;;;;2.40;1.60;;;;;;;-145.87;100.00;54973.53;2089745;28;20083;-61
2023/10/22 00:19:23;;;;;;;2.53;1.48;;;;;;;-145.87;100.00;54973.53;2089693;28;20061;-62
2023/10/22 00:20:24;;;;;;;4.00;1.48;;;;;;;-145.87;100.00;54973.53;2090459;28;20504;-62
2023/10/22 00:21:25;;;;;;;3.63;1.27;;;;;;;-145.87;100.00;54973.53;2090374;28;20045;-62
2023/10/22 00:22:26;;;;;;;4.53;1.30;;;;;;;-145.87;100.00;54973.53;2089589;28;20060;-62
2023/10/22 00:23:27;;;;;;;4.15;1.55;;;;;;;-145.87;100.00;54973.53;2090392;28;20052;-62
2023/10/22 00:24:28;;;;;;;2.20;1.25;;;;;;;-145.87;100.00;54973.53;2090590;28;20477;-62
2023/10/22 00:25:31;;;;;;;1.73;1.00;;;;;;;-145.87;100.00;54973.53;2091136;28;20052;-62
2023/10/22 00:26:32;;;;;;;3.28;1.30;;;;;;;-145.87;100.00;54973.53;2090365;28;20040;-62
2023/10/22 00:27:33;;;;;;;3.58;1.20;;;;;;;-145.87;100.00;54973.53;2090572;28;20040;-62
2023/10/22 00:28:34;;;;;;;3.13;1.38;;;;;;;-145.87;100.00;54973.53;2090455;28;20048;-62
2023/10/22 00:29:36;;;;;;;1.65;1.05;;;;;;;-145.87;100.00;54973.53;2090488;28;20053;-62
2023/10/22 00:30:37;;;;;;;1.45;1.10;;;;;;;-145.87;100.00;54973.53;2089939;28;20067;-62
2023/10/22 00:31:38;;;;;;;1.77;1.05;;;;;;;-145.87;100.00;54973.53;2089384;28;20489;-62
2023/10/22 00:32:39;;;;;;;2.92;1.10;;;;;;;-145.87;100.00;54973.53;2089561;28;20045;-62
2023/10/22 00:33:40;;;;;;;1.25;1.10;;;;;;;-145.87;100.00;54973.53;2089439;28;20056;-62
2023/10/22 00:34:43;;;;;;;1.88;1.38;;;;;;;-145.87;100.00;54973.53;2089214;28;20456;-62
2023/10/22 00:35:56;;;;;;;2.53;1.00;;;;;;;-145.87;100.00;54973.53;2090368;28;20060;-62
2023/10/22 00:36:57;;;;;;;1.35;1.00;;;;;;;-145.87;100.00;54973.53;2090797;28;20053;-61
2023/10/22 00:37:59;;;;;;;1.55;1.10;;;;;;;-145.87;100.00;54973.53;2090163;28;20390;-61
2023/10/22 00:39:01;;;;;;;2.85;1.10;;;;;;;-145.87;100.00;54973.53;2090313;28;20417;-61
2023/10/22 00:40:03;;;;;;;3.60;1.30;;;;;;;-145.87;100.00;54973.53;2089969;28;20432;-62
2023/10/22 00:41:04;;;;;;;4.15;1.05;;;;;;;-145.87;100.00;54973.53;2089842;28;20460;-62
2023/10/22 00:42:05;;;;;;;2.13;0.90;;;;;;;-145.87;100.00;54973.53;2089444;28;20061;-62
2023/10/22 00:43:06;;;;;;;1.40;1.02;;;;;;;-145.87;100.00;54973.53;2089670;28;20053;-61
2023/10/22 00:44:07;;;;;;;2.90;1.20;;;;;;;-145.87;100.00;54973.53;2089518;28;20535;-61
2023/10/22 00:45:09;;;;;;;4.00;1.10;;;;;;;-145.87;100.00;54973.53;2089979;28;20056;-61
2023/10/22 00:46:18;;;;;;;1.30;1.00;;;;;;;-145.87;100.00;54973.53;2090259;28;20057;-62
2023/10/22 00:47:19;;;;;;;2.85;1.20;;;;;;;-145.87;100.00;54973.53;2090376;28;20053;-63
2023/10/22 00:48:21;;;;;;;1.98;1.10;;;;;;;-145.87;100.00;54973.53;2089291;28;20052;-63
2023/10/22 00:49:22;;;;;;;3.45;1.15;;;;;;;-145.87;100.00;54973.53;2081556;28;20057;-62
2023/10/22 00:50:23;;;;;;;3.58;1.73;;;;;;;-145.87;100.00;54973.53;2081459;28;20045;-62
2023/10/22 00:51:24;;;;;;;1.67;0.98;;;;;;;-145.87;100.00;54973.53;2089373;28;20060;-62
2023/10/22 00:52:26;;;;;;;4.68;1.50;;;;;;;-145.87;100.00;54973.53;2090488;28;20048;-62
2023/10/22 00:53:29;;;;;;;1.73;1.20;;;;;;;-145.87;100.00;54973.53;2081497;28;20153;-62
2023/10/22 00:54:31;;;;;;;2.00;1.17;;;;;;;-145.87;100.00;54973.53;2081605;28;20061;-62
2023/10/22 00:55:34;;;;;;;2.83;1.55;;;;;;;-145.87;100.00;54973.53;2089371;28;20049;-62
2023/10/22 00:56:35;;;;;;;3.13;1.52;;;;;;;-145.87;100.00;54973.53;2073337;28;20050;-62
2023/10/22 00:57:37;;;;;;;2.42;1.35;;;;;;;-145.87;100.00;54973.53;2073297;28;20046;-63
2023/10/22 00:58:39;;;;;;;2.30;1.15;;;;;;;-145.87;100.00;54973.53;2081585;28;20049;-62
2023/10/22 00:59:40;;;;;;;2.25;1.27;;;;;;;-145.87;100.00;54973.53;2089412;28;20044;-62
2023/10/22 01:00:41;;;;;;;1.65;1.17;;;;;;;-145.87;100.00;54973.53;2089611;28;20045;-62
2023/10/22 01:01:42;;;;;;;2.83;1.33;;;;;;;-145.87;100.00;54973.53;2089877;28;20041;-62
2023/10/22 01:02:43;;;;;;;2.83;1.63;;;;;;;-145.87;100.00;54973.53;2090190;28;20040;-62
2023/10/22 01:03:45;;;;;;;4.93;1.52;;;;;;;-145.87;100.00;54973.53;2089848;28;20047;-62
2023/10/22 01:04:46;;;;;;;1.83;1.38;;;;;;;-145.87;100.00;54973.53;2089851;28;20044;-63
2023/10/22 01:05:47;;;;;;;3.33;1.42;;;;;;;-145.87;100.00;54973.53;2097282;28;20452;-62
2023/10/22 01:06:48;;;;;;;2.58;1.60;;;;;;;-145.87;100.00;54973.53;2090254;28;20044;-62
2023/10/22 01:07:49;;;;;;;3.22;1.70;;;;;;;-145.87;100.00;54973.53;2089460;28;20065;-63
2023/10/22 01:08:50;;;;;;;3.13;1.63;;;;;;;-145.87;100.00;54973.53;2089988;28;20057;-63
2023/10/22 01:09:51;;;;;;;3.53;1.73;;;;;;;-145.87;100.00;54973.53;2081504;28;20057;-63
2023/10/22 01:10:52;;;;;;;4.78;1.88;;;;;;;-145.87;100.00;54973.53;2089789;28;20049;-63
2023/10/22 01:12:00;;;;;;;1.90;1.35;;;;;;;-145.87;100.00;54973.53;2089640;28;20045;-62
2023/10/22 01:13:03;;;;;;;3.75;1.80;;;;;;;-145.87;100.00;54973.53;2089700;28;20479;-61
2023/10/22 01:14:05;;;;;;;4.07;1.73;;;;;;;-145.87;100.00;54973.53;2090121;28;20394;-62
2023/10/22 01:15:07;;;;;;;3.25;1.70;;;;;;;-145.87;100.00;54973.53;2090114;28;20048;-61
2023/10/22 01:16:08;;;;;;;7.07;3.20;;;;;;;-145.87;100.00;54973.53;2090183;28;20056;-62
2023/10/22 01:17:09;;;;;;;3.10;1.58;;;;;;;-145.87;100.00;54973.53;2089901;28;20053;-61
2023/10/22 01:18:10;;;;;;;6.03;1.65;;;;;;;-145.87;100.00;54973.53;2090231;28;20393;-62
2023/10/22 01:19:11;;;;;;;5.15;1.67;;;;;;;-145.87;100.00;54973.53;2089316;28;20068;-62
2023/10/22 01:20:13;;;;;;;2.90;1.80;;;;;;;-145.87;100.00;54973.53;2089726;28;20048;-62
2023/10/22 01:21:14;;;;;;;2.20;1.50;;;;;;;-145.87;100.00;54973.53;2089447;28;20052;-62
2023/10/22 01:22:15;;;;;;;3.40;1.85;;;;;;;-145.87;100.00;54973.53;2089646;28;20416;-62
2023/10/22 01:23:16;;;;;;;3.97;2.10;;;;;;;-145.87;100.00;54973.53;2089978;28;20053;-62
2023/10/22 01:24:17;;;;;;;4.43;1.77;;;;;;;-145.87;100.00;54973.53;2089415;28;20049;-61
2023/10/22 01:25:19;;;;;;;3.15;1.70;;;;;;;-145.87;100.00;54973.53;2089751;28;20053;-63
2023/10/22 01:26:20;;;;;;;3.58;1.60;;;;;;;-145.87;100.00;54973.53;2089847;28;20045;-64
2023/10/22 01:27:21;;;;;;;3.28;1.40;;;;;;;-145.87;100.00;54973.53;2089730;28;20504;-63
2023/10/22 01:28:22;;;;;;;4.38;1.60;;;;;;;-145.87;100.00;54973.53;2090050;28;20049;-63
2023/10/22 01:29:23;;;;;;;2.78;1.45;;;;;;;-145.87;100.00;54973.53;2090102;28;20401;-63
2023/10/22 01:30:24;;;;;;;2.75;1.58;;;;;;;-145.87;100.00;54973.53;2090086;28;20057;-63
2023/10/22 01:31:26;;;;;;;3.80;1.60;;;;;;;-145.87;100.00;54973.53;2090119;28;20053;-63
2023/10/22 01:32:30;;;;;;;3.08;1.30;;;;;;;-145.87;100.00;54973.53;2090245;28;20044;-63
2023/10/22 01:33:32;;;;;;;3.70;1.63;;;;;;;-145.87;100.00;54973.53;2089231;28;20560;-63
2023/10/22 01:34:33;;;;;;;4.20;1.40;;;;;;;-145.87;100.00;54973.53;2091191;28;20089;-63
2023/10/22 01:35:34;;;;;;;3.25;1.20;;;;;;;-145.87;100.00;54973.53;2091196;28;20053;-63
2023/10/22 01:36:35;;;;;;;2.65;1.25;;;;;;;-145.87;100.00;54973.53;2082957;28;20398;-63
2023/10/22 01:37:36;;;;;;;3.08;1.45;;;;;;;-145.87;100.00;54973.53;2083532;28;20057;-63
2023/10/22 01:38:38;;;;;;;4.78;1.48;;;;;;;-145.87;100.00;54973.53;2091411;28;20052;-63
2023/10/22 01:39:39;;;;;;;5.28;1.42;;;;;;;-145.87;100.00;54973.53;2091537;28;20053;-62
2023/10/22 01:40:40;;;;;;;2.88;1.33;;;;;;;-145.87;100.00;54973.53;2091655;28;20044;-63
2023/10/22 01:41:41;;;;;;;2.63;1.38;;;;;;;-145.87;100.00;54973.53;2091390;28;20496;-63
2023/10/22 01:42:42;;;;;;;2.10;1.20;;;;;;;-145.87;100.00;54973.53;2091545;28;20053;-63
2023/10/22 01:43:43;;;;;;;2.53;1.40;;;;;;;-145.87;100.00;54973.53;2091017;28;20048;-63
2023/10/22 01:44:44;;;;;;;2.42;1.10;;;;;;;-145.87;100.00;54973.53;2091190;28;20037;-63
2023/10/22 01:45:45;;;;;;;3.50;1.10;;;;;;;-145.87;100.00;54973.53;2091732;28;20066;-63
2023/10/22 01:46:46;;;;;;;2.63;1.20;;;;;;;-145.87;100.00;54973.53;2091233;28;20045;-63
2023/10/22 01:47:48;;;;;;;2.63;1.00;;;;;;;-145.87;100.00;54973.53;2091112;28;20049;-63
2023/10/22 01:48:49;;;;;;;2.45;1.10;;;;;;;-145.87;100.00;54973.53;2091921;28;20521;-63
2023/10/22 01:49:50;;;;;;;5.43;1.38;;;;;;;-145.87;100.00;54973.53;2091305;28;20056;-63
2023/10/22 01:50:51;;;;;;;2.15;0.90;;;;;;;-145.87;100.00;54973.53;2091868;28;20049;-63
2023/10/22 01:51:52;;;;;;;1.98;1.13;;;;;;;-145.87;100.00;54973.53;2091743;28;20087;-63
2023/10/22 01:52:54;;;;;;;2.53;1.48;;;;;;;-145.87;100.00;54973.53;2091614;28;20401;-63
2023/10/22 01:53:55;;;;;;;2.10;1.30;;;;;;;-145.87;100.00;54973.53;2091360;28;20053;-63
2023/10/22 01:54:56;;;;;;;3.78;1.30;;;;;;;-145.87;100.00;54973.53;2090327;28;20551;-63
2023/10/22 01:55:57;;;;;;;3.60;1.23;;;;;;;-145.87;100.00;54973.53;2083071;28;20053;-62
2023/10/22 01:56:59;;;;;;;2.10;1.00;;;;;;;-145.87;100.00;54973.53;2074905;28;20065;-62
2023/10/22 01:58:00;;;;;;;3.22;1.20;;;;;;;-145.87;100.00;54973.53;2091238;28;20068;-62
2023/10/22 01:59:01;;;;;;;2.22;0.85;;;;;;;-145.87;100.00;54973.53;2091330;28;20049;-65
2023/10/22 02:00:03;;;;;;;3.75;1.20;;;;;;;-145.87;100.00;54973.53;2091118;28;20440;-63
2023/10/22 02:01:05;;;;;;;2.03;1.00;;;;;;;-145.87;100.00;54973.53;2099174;28;20049;-62
2023/10/22 02:02:06;;;;;;;1.92;1.17;;;;;;;-145.87;100.00;54973.53;2091342;28;20057;-62
2023/10/22 02:03:07;;;;;;;2.42;1.23;;;;;;;-145.87;100.00;54973.53;2090516;28;20049;-63
2023/10/22 02:04:08;;;;;;;2.88;1.10;;;;;;;-145.87;100.00;54973.53;2082953;28;20477;-63
2023/10/22 02:05:09;;;;;;;2.10;1.15;;;;;;;-145.87;100.00;54973.53;2082866;28;20052;-62
2023/10/22 02:06:14;;;;;;;3.28;1.10;;;;;;;-145.87;100.00;54973.53;2090456;28;20068;-63
2023/10/22 02:07:15;;;;;;;4.35;0.98;;;;;;;-145.87;100.00;54973.53;2091467;28;20068;-63
2023/10/22 02:08:16;;;;;;;2.72;0.82;;;;;;;-145.87;100.00;54973.53;2091353;28;20053;-62
2023/10/22 02:09:17;;;;;;;3.40;1.15;;;;;;;-145.87;100.00;54973.53;2091649;28;20477;-62
2023/10/22 02:10:20;;;;;;;1.83;0.80;;;;;;;-145.87;100.00;54973.53;2082956;28;20056;-62
2023/10/22 02:11:21;;;;;;;1.75;0.73;;;;;;;-145.87;100.00;54973.53;2082572;28;20053;-63
2023/10/22 02:12:28;;;;;;;2.15;0.90;;;;;;;-145.87;100.00;54973.53;2082889;28;20046;-62
2023/10/22 02:13:29;;;;;;;1.73;1.00;;;;;;;-145.87;100.00;54973.53;2083373;28;20056;-63
2023/10/22 02:14:30;;;;;;;5.10;0.90;;;;;;;-145.87;100.00;54973.53;2090702;28;20389;-62
2023/10/22 02:15:31;;;;;;;2.92;0.80;;;;;;;-145.87;100.00;54973.53;2092123;28;20064;-62
2023/10/22 02:16:34;;;;;;;3.20;0.70;;;;;;;-145.87;100.00;54973.53;2091050;28;20033;-62
2023/10/22 02:17:37;;;;;;;2.25;0.90;;;;;;;-145.87;100.00;54973.53;2082562;28;20049;-62
2023/10/22 02:18:38;;;;;;;2.63;0.90;;;;;;;-145.87;100.00;54973.53;2082666;28;20041;-62
2023/10/22 02:19:39;;;;;;;1.50;0.80;;;;;;;-145.87;100.00;54973.53;2090889;28;20045;-62
2023/10/22 02:20:40;;;;;;;1.73;0.88;;;;;;;-145.87;100.00;54973.53;2091729;28;20488;-61
2023/10/22 02:21:41;;;;;;;0.63;0.60;;;;;;;-145.87;100.00;54973.53;2091295;28;20049;-60
2023/10/22 02:22:45;;;;;;;1.52;1.00;;;;;;;-145.87;100.00;54973.53;2090573;28;20051;-63
2023/10/22 02:23:46;;;;;;;1.15;0.90;;;;;;;-145.87;100.00;54973.53;2091121;28;20040;-63
2023/10/22 02:24:47;;;;;;;4.10;1.00;;;;;;;-145.87;100.00;54973.53;2091027;28;20470;-62
2023/10/22 02:25:49;;;;;;;1.63;0.85;;;;;;;-145.87;100.00;54973.53;2091133;28;20056;-62
2023/10/22 02:26:50;;;;;;;2.10;0.70;;;;;;;-145.87;100.00;54973.53;2091072;28;20045;-62
2023/10/22 02:27:51;;;;;;;2.92;1.20;;;;;;;-145.87;100.00;54973.53;2091552;28;20044;-62
2023/10/22 02:28:53;;;;;;;4.03;0.80;;;;;;;-145.87;100.00;54973.53;2091427;28;20063;-62
2023/10/22 02:29:54;;;;;;;1.13;0.90;;;;;;;-145.87;100.00;54973.53;2091577;28;20061;-62
2023/10/22 02:30:55;;;;;;;1.05;0.77;;;;;;;-145.87;100.00;54973.53;2091409;28;20063;-61
2023/10/22 02:31:56;;;;;;;2.72;1.10;;;;;;;-145.87;100.00;54973.53;2091478;28;20053;-61
2023/10/22 02:32:57;;;;;;;2.08;1.05;;;;;;;-145.87;100.00;54973.53;2091243;28;20061;-61
2023/10/22 02:34:05;;;;;;;3.70;1.27;;;;;;;-145.87;100.00;54973.53;2091024;28;20060;-61
2023/10/22 02:35:06;;;;;;;3.70;1.15;;;;;;;-145.87;100.00;54973.53;2091326;28;20053;-61
2023/10/22 02:36:08;;;;;;;2.45;1.00;;;;;;;-145.87;100.00;54973.53;2090184;28;20432;-61
2023/10/22 02:37:10;;;;;;;3.28;1.30;;;;;;;-145.87;100.00;54973.53;2090243;28;20500;-61
2023/10/22 02:38:13;;;;;;;1.88;0.95;;;;;;;-145.87;100.00;54973.53;2091846;28;20063;-61
2023/10/22 02:39:14;;;;;;;3.47;1.42;;;;;;;-145.87;100.00;54973.53;2091392;28;20057;-62
2023/10/22 02:40:15;;;;;;;2.53;1.35;;;;;;;-145.87;100.00;54973.53;2090718;28;20064;-61
2023/10/22 02:41:16;;;;;;;3.15;1.10;;;;;;;-145.87;100.00;54973.53;2090609;28;20044;-61
2023/10/22 02:42:18;;;;;;;2.00;1.33;;;;;;;-145.87;100.00;54973.53;2090958;28;20045;-61
2023/10/22 02:43:20;;;;;;;3.15;1.33;;;;;;;-145.87;100.00;54973.53;2090423;28;20064;-61
2023/10/22 02:44:21;;;;;;;1.70;0.85;;;;;;;-145.87;100.00;54973.53;2091315;28;20064;-61
2023/10/22 02:45:22;;;;;;;2.70;1.38;;;;;;;-145.87;100.00;54973.53;2089944;28;20045;-62
2023/10/22 02:46:23;;;;;;;2.17;1.20;;;;;;;-145.87;100.00;54973.53;2082389;28;20057;-61
2023/10/22 02:47:25;;;;;;;4.90;1.55;;;;;;;-145.87;100.00;54973.53;2082194;28;20053;-61
2023/10/22 02:48:26;;;;;;;2.35;1.52;;;;;;;-145.87;100.00;54973.53;2082382;28;20378;-61
2023/10/22 02:49:27;;;;;;;1.90;1.10;;;;;;;-145.87;100.00;54973.53;2082433;28;20068;-61
2023/10/22 02:50:28;;;;;;;3.95;1.40;;;;;;;-145.87;100.00;54973.53;2090846;28;20053;-61
2023/10/22 02:51:29;;;;;;;2.60;1.40;;;;;;;-145.87;100.00;54973.53;2091211;28;20051;-60
2023/10/22 02:52:31;;;;;;;4.50;1.42;;;;;;;-145.87;100.00;54973.53;2090750;28;20381;-61
2023/10/22 02:53:32;;;;;;;3.70;1.50;;;;;;;-145.87;100.00;54973.53;2090388;28;20111;-61
2023/10/22 02:54:34;;;;;;;2.67;1.60;;;;;;;-145.87;100.00;54973.53;2090953;28;20056;-61
2023/10/22 02:55:35;;;;;;;2.75;1.20;;;;;;;-145.87;100.00;54973.53;2090974;28;20045;-60
2023/10/22 02:56:38;;;;;;;3.33;1.33;;;;;;;-145.87;100.00;54973.53;2090807;28;20041;-61
2023/10/22 02:57:39;;;;;;;2.78;1.30;;;;;;;-145.87;100.00;54973.53;2090388;28;20053;-61
2023/10/22 02:58:40;;;;;;;4.93;1.40;;;;;;;-145.87;100.00;54973.53;2090687;28;20409;-60
2023/10/22 02:59:41;;;;;;;2.25;1.40;;;;;;;-145.87;100.00;54973.53;2089767;28;20060;-60
2023/10/22 03:00:42;;;;;;;3.15;1.20;;;;;;;-145.87;100.00;54973.53;2090873;28;20041;-60
2023/10/22 03:01:44;;;;;;;2.45;1.35;;;;;;;-145.87;100.00;54973.53;2082520;28;20053;-60
2023/10/22 03:02:45;;;;;;;5.53;1.70;;;;;;;-145.87;100.00;54973.53;2090824;28;20488;-60
2023/10/22 03:03:46;;;;;;;2.33;1.52;;;;;;;-145.87;100.00;54973.53;2090765;28;20049;-60
2023/10/22 03:04:47;;;;;;;5.90;1.70;;;;;;;-145.87;100.00;54973.53;2082242;28;20048;-60
2023/10/22 03:05:48;;;;;;;4.53;1.45;;;;;;;-145.87;100.00;54973.53;2090810;28;20516;-60
2023/10/22 03:06:50;;;;;;;2.88;1.55;;;;;;;-145.87;100.00;54973.53;2090754;28;20045;-60
2023/10/22 03:07:51;;;;;;;1.80;1.38;;;;;;;-145.87;100.00;54973.53;2081844;28;20057;-60
2023/10/22 03:08:52;;;;;;;2.90;1.35;;;;;;;-145.87;100.00;54973.53;2090560;28;20052;-60
2023/10/22 03:09:53;;;;;;;3.67;1.58;;;;;;;-145.87;100.00;54973.53;2091163;28;20056;-60
2023/10/22 03:10:54;;;;;;;2.67;1.50;;;;;;;-145.87;100.00;54973.53;2091117;28;20045;-60
2023/10/22 03:11:56;;;;;;;1.70;1.33;;;;;;;-145.87;100.00;54973.53;2091079;28;20044;-60
2023/10/22 03:12:58;;;;;;;2.33;1.63;;;;;;;-145.87;100.00;54973.53;2091341;28;20404;-60
2023/10/22 03:13:59;;;;;;;4.82;1.50;;;;;;;-145.87;100.00;54973.53;2091450;28;20057;-60
2023/10/22 03:15:00;;;;;;;3.70;1.42;;;;;;;-145.87;100.00;54973.53;2091197;28;20492;-60
2023/10/22 03:16:11;;;;;;;4.57;1.45;;;;;;;-145.87;100.00;54973.53;2091177;28;20044;-60
2023/10/22 03:17:12;;;;;;;6.15;1.20;;;;;;;-145.87;100.00;54973.53;2091040;28;20045;-60
2023/10/22 03:18:13;;;;;;;5.20;1.67;;;;;;;-145.87;100.00;54973.53;2090477;28;20063;-60
2023/10/22 03:19:17;;;;;;;2.50;1.30;;;;;;;-145.87;100.00;54973.53;2090415;28;20496;-60
2023/10/22 03:20:18;;;;;;;4.38;1.35;;;;;;;-145.87;100.00;54973.53;2090888;28;20049;-60
2023/10/22 03:21:20;;;;;;;3.55;1.20;;;;;;;-145.87;100.00;54973.53;2091025;28;20412;-60
2023/10/22 03:22:21;;;;;;;2.67;1.20;;;;;;;-145.87;100.00;54973.53;2090595;28;20052;-60
2023/10/22 03:23:22;;;;;;;2.10;1.00;;;;;;;-145.87;100.00;54973.53;2082100;28;20042;-59
2023/10/22 03:24:23;;;;;;;1.65;0.90;;;;;;;-145.87;100.00;54973.53;2090415;28;20461;-59
2023/10/22 03:25:24;;;;;;;2.67;1.45;;;;;;;-145.87;100.00;54973.53;2091548;28;20057;-60
2023/10/22 03:26:26;;;;;;;5.68;1.10;;;;;;;-145.87;100.00;54973.53;2090966;28;20041;-60
2023/10/22 03:27:27;;;;;;;1.45;0.98;;;;;;;-145.87;100.00;54973.53;2091097;28;20045;-60
2023/10/22 03:28:29;;;;;;;1.88;1.00;;;;;;;-145.87;100.00;54973.53;2090946;28;20049;-60
2023/10/22 03:29:31;;;;;;;4.72;1.20;;;;;;;-145.87;100.00;54973.53;2090834;28;20053;-60
2023/10/22 03:30:37;;;;;;;3.85;1.20;;;;;;;-145.87;100.00;54973.53;2082066;28;20052;-59
2023/10/22 03:31:38;;;;;;;2.35;0.82;;;;;;;-145.87;100.00;54973.53;2075532;28;20045;-60
2023/10/22 03:32:39;;;;;;;4.13;1.00;;;;;;;-145.87;100.00;54973.53;2082196;28;20049;-59
2023/10/22 03:33:41;;;;;;;1.70;0.70;;;;;;;-145.87;100.00;54973.53;2082086;28;20068;-60
2023/10/22 03:34:43;;;;;;;1.80;1.05;;;;;;;-145.87;100.00;54973.53;2082578;28;20402;-60
2023/10/22 03:35:44;;;;;;;2.92;0.95;;;;;;;-145.87;100.00;54973.53;2089898;28;20063;-59
2023/10/22 03:36:45;;;;;;;2.65;0.90;;;;;;;-145.87;100.00;54973.53;2091133;28;20041;-60
2023/10/22 03:37:46;;;;;;;2.63;0.77;;;;;;;-145.87;100.00;54973.53;2090832;28;20053;-60
2023/10/22 03:38:48;;;;;;;2.10;0.77;;;;;;;-145.87;100.00;54973.53;2091060;28;20505;-60
2023/10/22 03:39:49;;;;;;;4.95;0.90;;;;;;;-145.87;100.00;54973.53;2089393;28;20421;-59
2023/10/22 03:41:02;;;;;;;2.83;0.90;;;;;;;-145.87;100.00;54973.53;2090371;28;20430;-60
2023/10/22 03:42:03;;;;;;;1.90;0.73;;;;;;;-145.87;100.00;54973.53;2090854;28;20444;-59
2023/10/22 03:43:04;;;;;;;1.48;0.70;;;;;;;-145.87;100.00;54973.53;2090765;28;20060;-59
2023/10/22 03:44:06;;;;;;;2.47;0.88;;;;;;;-145.87;100.00;54973.53;2090865;28;20049;-59
2023/10/22 03:45:07;;;;;;;1.60;0.70;;;;;;;-145.87;100.00;54973.53;2090179;28;20053;-60
2023/10/22 03:46:08;;;;;;;1.17;0.70;;;;;;;-145.87;100.00;54973.53;2090338;28;20045;-59
2023/10/22 03:47:09;;;;;;;1.67;0.50;;;;;;;-145.87;100.00;54973.53;2090871;28;20056;-59
2023/10/22 03:48:10;;;;;;;1.98;0.70;;;;;;;-145.87;100.00;54973.53;2090714;28;20478;-59
2023/10/22 03:49:12;;;;;;;2.10;0.70;;;;;;;-145.87;100.00;54973.53;2081930;28;20052;-59
2023/10/22 03:50:14;;;;;;;2.53;0.85;;;;;;;-145.87;100.00;54973.53;2082203;28;20057;-59
2023/10/22 03:51:15;;;;;;;1.05;0.70;;;;;;;-145.87;100.00;54973.53;2089587;28;20060;-59
2023/10/22 03:52:16;;;;;;;0.90;0.50;;;;;;;-145.87;100.00;54973.53;2090971;28;20041;-59
2023/10/22 03:53:17;;;;;;;0.82;0.55;;;;;;;-145.87;100.00;54973.53;2090712;28;20401;-59
2023/10/22 03:54:18;;;;;;;1.60;0.60;;;;;;;-145.87;100.00;54973.53;2091120;28;20072;-59
2023/10/22 03:55:19;;;;;;;2.33;0.77;;;;;;;-145.87;100.00;54973.53;2090845;28;20057;-59
2023/10/22 03:56:20;;;;;;;2.22;0.70;;;;;;;-145.87;100.00;54973.53;2090712;28;20056;-59
2023/10/22 03:57:22;;;;;;;1.05;0.75;;;;;;;-145.87;100.00;54973.53;2090461;28;20060;-59
2023/10/22 03:58:25;;;;;;;1.58;0.52;;;;;;;-145.87;100.00;54973.53;2090802;28;20045;-59
2023/10/22 03:59:26;;;;;;;1.13;0.68;;;;;;;-145.87;100.00;54973.53;2090574;28;20474;-60
2023/10/22 04:00:27;;;;;;;1.95;0.50;;;;;;;-145.87;100.00;54973.53;2090662;28;20053;-59
2023/10/22 04:01:28;;;;;;;2.50;0.80;;;;;;;-145.87;100.00;54973.53;2090748;28;20057;-59
2023/10/22 04:02:29;;;;;;;1.92;0.80;;;;;;;-145.87;100.00;54973.53;2090626;28;20052;-59
2023/10/22 04:03:30;;;;;;;3.85;0.60;;;;;;;-145.87;100.00;54973.53;2090745;28;20040;-59
2023/10/22 04:04:31;;;;;;;1.33;0.50;;;;;;;-145.87;100.00;54973.53;2090834;28;20041;-59
2023/10/22 04:05:32;;;;;;;1.63;0.85;;;;;;;-145.87;100.00;54973.53;2091088;28;20053;-59
2023/10/22 04:06:34;;;;;;;2.72;0.68;;;;;;;-145.87;100.00;54973.53;2091110;28;20056;-59
2023/10/22 04:07:35;;;;;;;0.90;0.65;;;;;;;-145.87;100.00;54973.53;2090500;28;20043;-59
2023/10/22 04:08:36;;;;;;;1.67;0.82;;;;;;;-145.87;100.00;54973.53;2090785;28;20055;-59
2023/10/22 04:09:37;;;;;;;2.63;0.75;;;;;;;-145.87;100.00;54973.53;2091059;28;20052;-59
2023/10/22 04:10:44;;;;;;;2.92;0.88;;;;;;;-145.87;100.00;54973.53;2090652;28;20036;-60
2023/10/22 04:11:45;;;;;;;2.33;0.90;;;;;;;-145.87;100.00;54973.53;2090954;28;20064;-60
2023/10/22 04:12:47;;;;;;;2.83;1.05;;;;;;;-145.87;100.00;54973.53;2090309;28;20397;-59
2023/10/22 04:13:48;;;;;;;2.70;0.85;;;;;;;-145.87;100.00;54973.53;2090886;28;20044;-59
2023/10/22 04:14:49;;;;;;;5.05;0.90;;;;;;;-145.87;100.00;54973.53;2090444;28;20048;-59
2023/10/22 04:15:51;;;;;;;0.90;0.52;;;;;;;-145.87;100.00;54973.53;2090650;28;20166;-59
2023/10/22 04:16:52;;;;;;;1.85;0.63;;;;;;;-145.87;100.00;54973.53;2090499;28;20050;-60
2023/10/22 04:17:53;;;;;;;1.30;0.70;;;;;;;-145.87;100.00;54973.53;2090139;28;20211;-59
2023/10/22 04:18:54;;;;;;;3.97;1.05;;;;;;;-145.87;100.00;54973.53;2090271;28;20056;-59
2023/10/22 04:19:56;;;;;;;3.42;0.80;;;;;;;-145.87;100.00;54973.53;2090900;28;20397;-60
2023/10/22 04:20:57;;;;;;;2.08;0.80;;;;;;;-145.87;100.00;54973.53;2090501;28;20421;-60
2023/10/22 04:21:58;;;;;;;2.97;0.80;;;;;;;-145.87;100.00;54973.53;2090825;28;20045;-60
2023/10/22 04:22:59;;;;;;;2.55;1.00;;;;;;;-145.87;100.00;54973.53;2090897;28;20060;-60
2023/10/22 04:24:00;;;;;;;5.43;0.93;;;;;;;-145.87;100.00;54973.53;2090767;28;20053;-60
2023/10/22 04:25:02;;;;;;;2.50;0.75;;;;;;;-145.87;100.00;54973.53;2090892;28;20079;-59
2023/10/22 04:26:04;;;;;;;1.98;0.80;;;;;;;-145.87;100.00;54973.53;2090578;28;20041;-60
2023/10/22 04:27:05;;;;;;;2.00;0.80;;;;;;;-145.87;100.00;54973.53;2090637;28;20049;-59
2023/10/22 04:28:07;;;;;;;0.73;0.57;;;;;;;-145.87;100.00;54973.53;2090415;28;20048;-60
2023/10/22 04:29:08;;;;;;;4.45;0.73;;;;;;;-145.87;100.00;54973.53;2090596;28;20473;-60
2023/10/22 04:30:09;;;;;;;2.88;0.82;;;;;;;-145.87;100.00;54973.53;2090867;28;20059;-61
2023/10/22 04:31:10;;;;;;;4.03;0.88;;;;;;;-145.87;100.00;54973.53;2090448;28;20052;-59
2023/10/22 04:32:15;;;;;;;3.65;0.80;;;;;;;-145.87;100.00;54973.53;2090615;28;20045;-60
2023/10/22 04:33:16;;;;;;;3.33;1.17;;;;;;;-145.87;100.00;54973.53;2090396;28;20056;-59
2023/10/22 04:34:18;;;;;;;4.45;1.00;;;;;;;-145.87;100.00;54973.53;2090369;28;20396;-59
2023/10/22 04:35:19;;;;;;;2.80;0.80;;;;;;;-145.87;100.00;54973.53;2090403;28;20060;-59
2023/10/22 04:36:20;;;;;;;4.75;0.90;;;;;;;-145.87;100.00;54973.53;2090458;28;20048;-59
2023/10/22 04:37:23;;;;;;;1.70;0.70;;;;;;;-145.87;100.00;54973.53;2090343;28;20373;-59
2023/10/22 04:38:24;;;;;;;1.77;0.60;;;;;;;-145.87;100.00;54973.53;2090369;28;20056;-59
2023/10/22 04:39:26;;;;;;;4.10;1.00;;;;;;;-145.87;100.00;54973.53;2090150;28;20057;-60
2023/10/22 04:40:33;;;;;;;3.80;1.00;;;;;;;-145.87;100.00;54973.53;2090399;28;20048;-59